sensor_id;sensor_type;location;lat;lon;timestamp;pressure;altitude;pressure_sealevel;temperature;humidity
63190;BME280;49286;44.460;26.114;2024-01-15T00:00:29;99956.28;;;0.05;100.00
63190;BME280;49286;44.460;26.114;2024-01-15T00:02:54;99833.34;;;-0.46;100.00
63190;BME280;49286;44.460;26.114;2024-01-15T00:05:20;99828.88;;;-0.51;100.00
63190;BME280;49286;44.460;26.114;2024-01-15T00:07:45;99807.47;;;-0.73;100.00
63190;BME280;49286;44.460;26.114;2024-01-15T00:10:11;99909.31;;;-0.10;100.00
63190;BME280;49286;44.460;26.114;2024-01-15T00:12:36;99888.03;;;-0.30;100.00
63190;BME280;49286;44.460;26.114;2024-01-15T00:15:02;99849.06;;;-0.38;100.00
63190;BME280;49286;44.460;26.114;2024-01-15T00:17:27;99844.34;;;-0.51;100.00
63190;BME280;49286;44.460;26.114;2024-01-15T00:19:53;99950.44;;;0.11;100.00
63190;BME280;49286;44.460;26.114;2024-01-15T00:22:18;99851.13;;;-0.53;100.00
63190;BME280;49286;44.460;26.114;2024-01-15T00:24:44;99947.63;;;0.03;100.00
63190;BME280;49286;44.460;26.114;2024-01-15T00:27:10;99930.72;;;-0.13;100.00
63190;BME280;49286;44.460;26.114;2024-01-15T00:29:35;99844.88;;;-0.60;100.00
63190;BME280;49286;44.460;26.114;2024-01-15T00:32:01;99858.03;;;-0.52;100.00
63190;BME280;49286;44.460;26.114;2024-01-15T00:34:27;99931.28;;;-0.22;100.00
63190;BME280;49286;44.460;26.114;2024-01-15T00:36:52;99927.72;;;-0.25;100.00
63190;BME280;49286;44.460;26.114;2024-01-15T00:39:18;99918.78;;;-0.35;100.00
63190;BME280;49286;44.460;26.114;2024-01-15T00:41:43;99955.44;;;0.06;100.00
63190;BME280;49286;44.460;26.114;2024-01-15T00:44:09;99862.53;;;-0.47;100.00
63190;BME280;49286;44.460;26.114;2024-01-15T00:46:42;99841.31;;;-0.88;100.00
63190;BME280;49286;44.460;26.114;2024-01-15T00:49:08;99909.19;;;-0.39;100.00
63190;BME280;49286;44.460;26.114;2024-01-15T00:51:34;99929.63;;;-0.19;100.00
63190;BME280;49286;44.460;26.114;2024-01-15T00:53:59;99851.50;;;-0.67;100.00
63190;BME280;49286;44.460;26.114;2024-01-15T00:56:25;99951.59;;;-0.05;100.00
63190;BME280;49286;44.460;26.114;2024-01-15T00:58:50;99878.16;;;-0.42;100.00
63190;BME280;49286;44.460;26.114;2024-01-15T01:01:16;99848.06;;;-0.91;100.00
63190;BME280;49286;44.460;26.114;2024-01-15T01:03:42;99885.66;;;-0.72;100.00
63190;BME280;49286;44.460;26.114;2024-01-15T01:06:08;99827.78;;;-0.82;100.00
63190;BME280;49286;44.460;26.114;2024-01-15T01:08:33;99943.78;;;-0.08;100.00
63190;BME280;49286;44.460;26.114;2024-01-15T01:10:59;99744.50;;;-1.31;100.00
63190;BME280;49286;44.460;26.114;2024-01-15T01:13:25;99859.03;;;-0.49;100.00
63190;BME280;49286;44.460;26.114;2024-01-15T01:15:51;99898.59;;;-0.23;100.00
63190;BME280;49286;44.460;26.114;2024-01-15T01:18:16;99950.81;;;-0.04;100.00
63190;BME280;49286;44.460;26.114;2024-01-15T01:20:42;99919.75;;;-0.31;100.00
63190;BME280;49286;44.460;26.114;2024-01-15T01:23:07;99920.47;;;-0.35;100.00
63190;BME280;49286;44.460;26.114;2024-01-15T01:25:33;99829.78;;;-0.97;100.00
63190;BME280;49286;44.460;26.114;2024-01-15T01:27:58;99927.56;;;-0.30;100.00
63190;BME280;49286;44.460;26.114;2024-01-15T01:30:24;99943.19;;;-0.25;100.00
63190;BME280;49286;44.460;26.114;2024-01-15T01:32:49;99935.50;;;-0.24;100.00
63190;BME280;49286;44.460;26.114;2024-01-15T01:35:15;99915.63;;;-0.26;100.00
63190;BME280;49286;44.460;26.114;2024-01-15T01:37:40;99939.50;;;-0.08;100.00
63190;BME280;49286;44.460;26.114;2024-01-15T01:40:06;99813.16;;;-0.83;100.00
63190;BME280;49286;44.460;26.114;2024-01-15T01:42:32;99818.56;;;-0.75;100.00
63190;BME280;49286;44.460;26.114;2024-01-15T01:44:57;99862.31;;;-0.53;100.00
63190;BME280;49286;44.460;26.114;2024-01-15T01:47:23;99826.28;;;-0.75;100.00
63190;BME280;49286;44.460;26.114;2024-01-15T01:49:52;99808.31;;;-0.74;100.00
63190;BME280;49286;44.460;26.114;2024-01-15T01:52:18;99817.91;;;-0.70;100.00
63190;BME280;49286;44.460;26.114;2024-01-15T01:54:43;99926.66;;;-0.06;100.00
63190;BME280;49286;44.460;26.114;2024-01-15T01:57:10;99806.69;;;-0.72;100.00
63190;BME280;49286;44.460;26.114;2024-01-15T01:59:37;99918.66;;;-0.14;100.00
63190;BME280;49286;44.460;26.114;2024-01-15T02:02:04;99813.91;;;-0.61;100.00
63190;BME280;49286;44.460;26.114;2024-01-15T02:04:31;99836.59;;;-0.51;100.00
63190;BME280;49286;44.460;26.114;2024-01-15T02:06:57;99907.91;;;-0.26;100.00
63190;BME280;49286;44.460;26.114;2024-01-15T02:09:22;99918.00;;;-0.08;100.00
63190;BME280;49286;44.460;26.114;2024-01-15T02:11:48;99859.19;;;-0.44;100.00
63190;BME280;49286;44.460;26.114;2024-01-15T02:14:14;99857.03;;;-0.32;100.00
63190;BME280;49286;44.460;26.114;2024-01-15T02:16:39;99907.34;;;-0.17;100.00
63190;BME280;49286;44.460;26.114;2024-01-15T02:19:05;99823.34;;;-0.62;100.00
63190;BME280;49286;44.460;26.114;2024-01-15T02:21:33;99912.75;;;-0.11;100.00
63190;BME280;49286;44.460;26.114;2024-01-15T02:23:59;99833.69;;;-0.60;100.00
63190;BME280;49286;44.460;26.114;2024-01-15T02:26:25;99909.13;;;-0.16;100.00
63190;BME280;49286;44.460;26.114;2024-01-15T02:28:51;99793.34;;;-0.60;100.00
63190;BME280;49286;44.460;26.114;2024-01-15T02:31:17;99790.91;;;-0.81;100.00
63190;BME280;49286;44.460;26.114;2024-01-15T02:33:43;99848.63;;;-0.26;100.00
63190;BME280;49286;44.460;26.114;2024-01-15T02:36:09;99831.03;;;-0.38;100.00
63190;BME280;49286;44.460;26.114;2024-01-15T02:38:34;99753.56;;;-0.68;100.00
63190;BME280;49286;44.460;26.114;2024-01-15T02:41:00;99858.59;;;-0.11;100.00
63190;BME280;49286;44.460;26.114;2024-01-15T02:43:26;99748.47;;;-0.67;100.00
63190;BME280;49286;44.460;26.114;2024-01-15T02:45:51;99865.66;;;-0.06;100.00
63190;BME280;49286;44.460;26.114;2024-01-15T02:48:17;99797.03;;;-0.28;100.00
63190;BME280;49286;44.460;26.114;2024-01-15T02:50:42;99891.50;;;0.22;100.00
63190;BME280;49286;44.460;26.114;2024-01-15T02:53:08;99805.63;;;-0.27;100.00
63190;BME280;49286;44.460;26.114;2024-01-15T02:55:33;99892.13;;;0.14;100.00
63190;BME280;49286;44.460;26.114;2024-01-15T02:57:59;99824.75;;;-0.20;100.00
63190;BME280;49286;44.460;26.114;2024-01-15T03:00:25;99881.97;;;0.20;100.00
63190;BME280;49286;44.460;26.114;2024-01-15T03:02:51;99782.91;;;-0.39;100.00
63190;BME280;49286;44.460;26.114;2024-01-15T03:05:16;99812.84;;;-0.17;100.00
63190;BME280;49286;44.460;26.114;2024-01-15T03:07:42;99874.25;;;0.20;100.00
63190;BME280;49286;44.460;26.114;2024-01-15T03:10:09;99773.41;;;-0.40;100.00
63190;BME280;49286;44.460;26.114;2024-01-15T03:12:34;99793.00;;;-0.19;100.00
63190;BME280;49286;44.460;26.114;2024-01-15T03:15:00;99877.97;;;0.29;100.00
63190;BME280;49286;44.460;26.114;2024-01-15T03:17:26;99837.53;;;-0.24;100.00
63190;BME280;49286;44.460;26.114;2024-01-15T03:19:52;99781.28;;;-0.35;100.00
63190;BME280;49286;44.460;26.114;2024-01-15T03:22:17;99757.13;;;-0.39;100.00
63190;BME280;49286;44.460;26.114;2024-01-15T03:24:43;99865.63;;;0.20;100.00
63190;BME280;49286;44.460;26.114;2024-01-15T03:27:09;99824.38;;;-0.06;100.00
63190;BME280;49286;44.460;26.114;2024-01-15T03:29:34;99826.75;;;-0.12;100.00
63190;BME280;49286;44.460;26.114;2024-01-15T03:32:00;99733.25;;;-0.59;100.00
63190;BME280;49286;44.460;26.114;2024-01-15T03:34:25;99829.06;;;-0.21;100.00
63190;BME280;49286;44.460;26.114;2024-01-15T03:36:51;99837.38;;;-0.03;100.00
63190;BME280;49286;44.460;26.114;2024-01-15T03:39:16;99744.72;;;-0.51;100.00
63190;BME280;49286;44.460;26.114;2024-01-15T03:41:42;99786.28;;;-0.40;100.00
63190;BME280;49286;44.460;26.114;2024-01-15T03:44:07;99880.41;;;0.26;100.00
63190;BME280;49286;44.460;26.114;2024-01-15T03:46:33;99825.16;;;-0.08;100.00
63190;BME280;49286;44.460;26.114;2024-01-15T03:48:58;99779.16;;;-0.47;100.00
63190;BME280;49286;44.460;26.114;2024-01-15T03:51:24;99770.72;;;-0.69;100.00
63190;BME280;49286;44.460;26.114;2024-01-15T03:53:50;99733.16;;;-0.88;100.00
63190;BME280;49286;44.460;26.114;2024-01-15T03:56:15;99790.53;;;-0.42;100.00
63190;BME280;49286;44.460;26.114;2024-01-15T03:58:41;99766.59;;;-0.64;100.00
63190;BME280;49286;44.460;26.114;2024-01-15T04:01:10;99857.44;;;0.06;100.00
63190;BME280;49286;44.460;26.114;2024-01-15T04:03:36;99723.56;;;-0.66;100.00
63190;BME280;49286;44.460;26.114;2024-01-15T04:06:01;99790.78;;;-0.60;100.00
63190;BME280;49286;44.460;26.114;2024-01-15T04:08:27;99852.75;;;-0.06;100.00
63190;BME280;49286;44.460;26.114;2024-01-15T04:10:52;99771.56;;;-0.44;100.00
63190;BME280;49286;44.460;26.114;2024-01-15T04:13:18;99869.91;;;0.19;100.00
63190;BME280;49286;44.460;26.114;2024-01-15T04:15:43;99770.63;;;-0.46;100.00
63190;BME280;49286;44.460;26.114;2024-01-15T04:18:09;99866.19;;;0.11;100.00
63190;BME280;49286;44.460;26.114;2024-01-15T04:20:34;99810.78;;;-0.27;100.00
63190;BME280;49286;44.460;26.114;2024-01-15T04:23:00;99767.97;;;-0.49;100.00
63190;BME280;49286;44.460;26.114;2024-01-15T04:25:25;99843.69;;;-0.20;100.00
63190;BME280;49286;44.460;26.114;2024-01-15T04:27:51;99846.31;;;-0.18;100.00
63190;BME280;49286;44.460;26.114;2024-01-15T04:30:16;99861.34;;;-0.05;100.00
63190;BME280;49286;44.460;26.114;2024-01-15T04:32:42;99855.06;;;0.12;100.00
63190;BME280;49286;44.460;26.114;2024-01-15T04:35:07;99795.63;;;-0.18;100.00
63190;BME280;49286;44.460;26.114;2024-01-15T04:37:33;99820.47;;;-0.20;100.00
63190;BME280;49286;44.460;26.114;2024-01-15T04:39:58;99840.09;;;-0.24;100.00
63190;BME280;49286;44.460;26.114;2024-01-15T04:42:24;99663.97;;;-1.02;100.00
63190;BME280;49286;44.460;26.114;2024-01-15T04:44:49;99794.78;;;-0.17;100.00
63190;BME280;49286;44.460;26.114;2024-01-15T04:47:15;99843.44;;;-0.02;100.00
63190;BME280;49286;44.460;26.114;2024-01-15T04:49:40;99859.38;;;0.12;100.00
63190;BME280;49286;44.460;26.114;2024-01-15T04:52:06;99838.91;;;-0.08;100.00
63190;BME280;49286;44.460;26.114;2024-01-15T04:54:33;99759.06;;;-0.83;100.00
63190;BME280;49286;44.460;26.114;2024-01-15T04:56:58;99791.91;;;-0.26;100.00
63190;BME280;49286;44.460;26.114;2024-01-15T04:59:24;99869.16;;;0.22;100.00
63190;BME280;49286;44.460;26.114;2024-01-15T05:01:49;99863.63;;;0.11;100.00
63190;BME280;49286;44.460;26.114;2024-01-15T05:04:15;99739.09;;;-0.39;100.00
63190;BME280;49286;44.460;26.114;2024-01-15T05:06:40;99857.88;;;0.20;100.00
63190;BME280;49286;44.460;26.114;2024-01-15T05:09:06;99858.31;;;0.07;100.00
63190;BME280;49286;44.460;26.114;2024-01-15T05:11:33;99759.84;;;-0.60;100.00
63190;BME280;49286;44.460;26.114;2024-01-15T05:13:58;99821.66;;;-0.10;100.00
63190;BME280;49286;44.460;26.114;2024-01-15T05:16:24;99844.09;;;-0.08;100.00
63190;BME280;49286;44.460;26.114;2024-01-15T05:18:49;99841.09;;;0.06;100.00
63190;BME280;49286;44.460;26.114;2024-01-15T05:21:15;99723.38;;;-0.72;100.00
63190;BME280;49286;44.460;26.114;2024-01-15T05:23:41;99826.97;;;-0.06;100.00
63190;BME280;49286;44.460;26.114;2024-01-15T05:26:06;99714.50;;;-0.80;100.00
63190;BME280;49286;44.460;26.114;2024-01-15T05:28:34;99835.69;;;-0.28;100.00
63190;BME280;49286;44.460;26.114;2024-01-15T05:30:59;99824.28;;;-0.34;100.00
63190;BME280;49286;44.460;26.114;2024-01-15T05:33:25;99839.53;;;-0.15;100.00
63190;BME280;49286;44.460;26.114;2024-01-15T05:35:52;99815.53;;;-0.14;100.00
63190;BME280;49286;44.460;26.114;2024-01-15T05:38:19;99835.25;;;-0.14;100.00
63190;BME280;49286;44.460;26.114;2024-01-15T05:40:44;99828.59;;;-0.33;100.00
63190;BME280;49286;44.460;26.114;2024-01-15T05:43:10;99715.66;;;-0.96;100.00
63190;BME280;49286;44.460;26.114;2024-01-15T05:45:37;99715.06;;;-0.89;100.00
63190;BME280;49286;44.460;26.114;2024-01-15T05:48:03;99832.53;;;-0.19;100.00
63190;BME280;49286;44.460;26.114;2024-01-15T05:50:29;99736.34;;;-0.69;100.00
63190;BME280;49286;44.460;26.114;2024-01-15T05:52:54;99820.56;;;-0.17;100.00
63190;BME280;49286;44.460;26.114;2024-01-15T05:55:20;99827.81;;;-0.07;100.00
63190;BME280;49286;44.460;26.114;2024-01-15T05:57:45;99704.34;;;-0.76;100.00
63190;BME280;49286;44.460;26.114;2024-01-15T06:00:11;99823.44;;;-0.09;100.00
63190;BME280;49286;44.460;26.114;2024-01-15T06:02:38;99736.13;;;-0.75;100.00
63190;BME280;49286;44.460;26.114;2024-01-15T06:05:04;99736.66;;;-0.86;100.00
63190;BME280;49286;44.460;26.114;2024-01-15T06:07:30;99722.91;;;-0.86;100.00
63190;BME280;49286;44.460;26.114;2024-01-15T06:09:56;99716.50;;;-0.97;100.00
63190;BME280;49286;44.460;26.114;2024-01-15T06:12:24;99692.84;;;-1.11;100.00
63190;BME280;49286;44.460;26.114;2024-01-15T06:14:49;99811.59;;;-0.28;100.00
63190;BME280;49286;44.460;26.114;2024-01-15T06:17:15;99719.81;;;-0.76;100.00
63190;BME280;49286;44.460;26.114;2024-01-15T06:19:40;99808.88;;;-0.33;100.00
63190;BME280;49286;44.460;26.114;2024-01-15T06:22:06;99781.28;;;-0.61;100.00
63190;BME280;49286;44.460;26.114;2024-01-15T06:24:31;99790.53;;;-0.42;100.00
63190;BME280;49286;44.460;26.114;2024-01-15T06:26:57;99728.22;;;-0.81;100.00
63190;BME280;49286;44.460;26.114;2024-01-15T06:29:25;99689.75;;;-1.01;100.00
63190;BME280;49286;44.460;26.114;2024-01-15T06:31:52;99710.13;;;-0.83;100.00
63190;BME280;49286;44.460;26.114;2024-01-15T06:34:18;99706.22;;;-0.97;100.00
63190;BME280;49286;44.460;26.114;2024-01-15T06:36:43;99816.25;;;-0.18;100.00
63190;BME280;49286;44.460;26.114;2024-01-15T06:39:09;99815.25;;;-0.22;100.00
63190;BME280;49286;44.460;26.114;2024-01-15T06:41:35;99730.88;;;-0.78;100.00
63190;BME280;49286;44.460;26.114;2024-01-15T06:44:06;99805.69;;;-0.51;100.00
63190;BME280;49286;44.460;26.114;2024-01-15T06:46:32;99717.91;;;-1.06;100.00
63190;BME280;49286;44.460;26.114;2024-01-15T06:48:58;99806.91;;;-0.40;100.00
63190;BME280;49286;44.460;26.114;2024-01-15T06:51:24;99804.28;;;-0.41;100.00
63190;BME280;49286;44.460;26.114;2024-01-15T06:53:50;99815.41;;;-0.17;100.00
63190;BME280;49286;44.460;26.114;2024-01-15T06:56:15;99631.16;;;-1.08;100.00
63190;BME280;49286;44.460;26.114;2024-01-15T06:58:40;99735.44;;;-0.46;100.00
63190;BME280;49286;44.460;26.114;2024-01-15T07:01:06;99773.59;;;-0.08;100.00
63190;BME280;49286;44.460;26.114;2024-01-15T07:03:33;99812.88;;;0.10;100.00
63190;BME280;49286;44.460;26.114;2024-01-15T07:05:58;99805.75;;;0.30;100.00
63190;BME280;49286;44.460;26.114;2024-01-15T07:08:24;99761.19;;;0.07;100.00
63190;BME280;49286;44.460;26.114;2024-01-15T07:10:49;99673.38;;;-0.52;100.00
63190;BME280;49286;44.460;26.114;2024-01-15T07:13:15;99701.69;;;-0.26;100.00
63190;BME280;49286;44.460;26.114;2024-01-15T07:15:40;99802.28;;;0.28;100.00
63190;BME280;49286;44.460;26.114;2024-01-15T07:18:06;99821.28;;;0.59;100.00
63190;BME280;49286;44.460;26.114;2024-01-15T07:20:31;99819.88;;;0.70;100.00
63190;BME280;49286;44.460;26.114;2024-01-15T07:22:57;99800.84;;;0.67;100.00
63190;BME280;49286;44.460;26.114;2024-01-15T07:25:23;99809.31;;;0.62;100.00
63190;BME280;49286;44.460;26.114;2024-01-15T07:27:48;99772.63;;;0.44;100.00
63190;BME280;49286;44.460;26.114;2024-01-15T07:30:14;99744.38;;;0.49;100.00
63190;BME280;49286;44.460;26.114;2024-01-15T07:32:39;99708.31;;;0.22;100.00
63190;BME280;49286;44.460;26.114;2024-01-15T07:35:06;99821.44;;;0.94;100.00
63190;BME280;49286;44.460;26.114;2024-01-15T07:37:31;99712.13;;;0.34;100.00
63190;BME280;49286;44.460;26.114;2024-01-15T07:39:57;99715.91;;;0.46;100.00
63190;BME280;49286;44.460;26.114;2024-01-15T07:42:23;99735.38;;;0.65;100.00
63190;BME280;49286;44.460;26.114;2024-01-15T07:44:48;99801.94;;;1.05;100.00
63190;BME280;49286;44.460;26.114;2024-01-15T07:47:16;99719.03;;;0.64;100.00
63190;BME280;49286;44.460;26.114;2024-01-15T07:49:42;99778.22;;;0.88;100.00
63190;BME280;49286;44.460;26.114;2024-01-15T07:52:07;99814.84;;;1.35;100.00
63190;BME280;49286;44.460;26.114;2024-01-15T07:54:33;99815.81;;;1.39;100.00
63190;BME280;49286;44.460;26.114;2024-01-15T07:57:00;99818.69;;;1.19;100.00
63190;BME280;49286;44.460;26.114;2024-01-15T07:59:27;99819.56;;;1.50;100.00
63190;BME280;49286;44.460;26.114;2024-01-15T08:01:53;99803.03;;;1.45;100.00
63190;BME280;49286;44.460;26.114;2024-01-15T08:04:19;99820.94;;;1.71;100.00
63190;BME280;49286;44.460;26.114;2024-01-15T08:06:45;99805.44;;;1.71;100.00
63190;BME280;49286;44.460;26.114;2024-01-15T08:09:11;99806.22;;;1.68;100.00
63190;BME280;49286;44.460;26.114;2024-01-15T08:11:41;99817.00;;;1.85;100.00
63190;BME280;49286;44.460;26.114;2024-01-15T08:14:08;99823.19;;;1.90;100.00
63190;BME280;49286;44.460;26.114;2024-01-15T08:16:33;99701.84;;;0.96;100.00
63190;BME280;49286;44.460;26.114;2024-01-15T08:18:59;99770.47;;;1.52;100.00
63190;BME280;49286;44.460;26.114;2024-01-15T08:21:24;99752.84;;;1.70;100.00
63190;BME280;49286;44.460;26.114;2024-01-15T08:23:50;99821.31;;;2.19;100.00
63190;BME280;49286;44.460;26.114;2024-01-15T08:26:16;99807.44;;;2.16;100.00
63190;BME280;49286;44.460;26.114;2024-01-15T08:28:41;99791.34;;;1.94;100.00
63190;BME280;49286;44.460;26.114;2024-01-15T08:31:07;99815.38;;;2.23;100.00
63190;BME280;49286;44.460;26.114;2024-01-15T08:33:32;99699.44;;;1.72;100.00
63190;BME280;49286;44.460;26.114;2024-01-15T08:35:58;99815.25;;;2.57;100.00
63190;BME280;49286;44.460;26.114;2024-01-15T08:38:23;99803.47;;;2.69;100.00
63190;BME280;49286;44.460;26.114;2024-01-15T08:40:50;99796.69;;;2.74;100.00
63190;BME280;49286;44.460;26.114;2024-01-15T08:43:16;99754.28;;;2.31;100.00
63190;BME280;49286;44.460;26.114;2024-01-15T08:45:42;99701.94;;;2.04;100.00
63190;BME280;49286;44.460;26.114;2024-01-15T08:48:07;99706.09;;;2.37;100.00
63190;BME280;49286;44.460;26.114;2024-01-15T08:50:33;99691.06;;;2.61;100.00
63190;BME280;49286;44.460;26.114;2024-01-15T08:52:59;99686.22;;;2.78;100.00
63190;BME280;49286;44.460;26.114;2024-01-15T08:55:24;99769.34;;;3.34;100.00
63190;BME280;49286;44.460;26.114;2024-01-15T08:57:50;99664.56;;;2.76;100.00
63190;BME280;49286;44.460;26.114;2024-01-15T09:00:16;99753.09;;;3.43;100.00
63190;BME280;49286;44.460;26.114;2024-01-15T09:02:44;99760.25;;;3.58;100.00
63190;BME280;49286;44.460;26.114;2024-01-15T09:05:10;99774.38;;;3.72;100.00
63190;BME280;49286;44.460;26.114;2024-01-15T09:07:36;99414.31;;;1.82;100.00
63190;BME280;49286;44.460;26.114;2024-01-15T09:10:02;99677.09;;;3.47;100.00
63190;BME280;49286;44.460;26.114;2024-01-15T09:12:28;99668.25;;;3.36;100.00
63190;BME280;49286;44.460;26.114;2024-01-15T09:14:54;99751.59;;;4.08;100.00
63190;BME280;49286;44.460;26.114;2024-01-15T09:17:21;99729.06;;;4.05;100.00
63190;BME280;49286;44.460;26.114;2024-01-15T09:19:49;99721.94;;;3.93;100.00
63190;BME280;49286;44.460;26.114;2024-01-15T09:22:15;99740.72;;;4.33;100.00
63190;BME280;49286;44.460;26.114;2024-01-15T09:24:44;99666.81;;;4.11;100.00
63190;BME280;49286;44.460;26.114;2024-01-15T09:27:09;99719.22;;;4.47;100.00
63190;BME280;49286;44.460;26.114;2024-01-15T09:29:35;99625.19;;;4.04;100.00
63190;BME280;49286;44.460;26.114;2024-01-15T09:32:03;99689.91;;;4.55;100.00
63190;BME280;49286;44.460;26.114;2024-01-15T09:34:29;99667.47;;;4.63;100.00
63190;BME280;49286;44.460;26.114;2024-01-15T09:36:55;99579.53;;;4.19;100.00
63190;BME280;49286;44.460;26.114;2024-01-15T09:39:20;99617.94;;;4.45;100.00
63190;BME280;49286;44.460;26.114;2024-01-15T09:41:47;99610.97;;;4.44;100.00
63190;BME280;49286;44.460;26.114;2024-01-15T09:44:13;99685.31;;;5.07;100.00
63190;BME280;49286;44.460;26.114;2024-01-15T09:46:40;99685.31;;;5.06;100.00
63190;BME280;49286;44.460;26.114;2024-01-15T09:49:06;99664.50;;;5.07;100.00
63190;BME280;49286;44.460;26.114;2024-01-15T09:51:32;99623.50;;;4.82;100.00
63190;BME280;49286;44.460;26.114;2024-01-15T09:53:58;99646.44;;;5.20;100.00
63190;BME280;49286;44.460;26.114;2024-01-15T09:56:24;99649.75;;;5.05;100.00
63190;BME280;49286;44.460;26.114;2024-01-15T09:58:50;99605.47;;;4.96;100.00
63190;BME280;49286;44.460;26.114;2024-01-15T10:01:20;99644.06;;;5.47;100.00
63190;BME280;49286;44.460;26.114;2024-01-15T10:03:46;99651.09;;;5.59;100.00
63190;BME280;49286;44.460;26.114;2024-01-15T10:06:15;99568.44;;;5.26;100.00
63190;BME280;49286;44.460;26.114;2024-01-15T10:08:44;99554.75;;;5.50;100.00
63190;BME280;49286;44.460;26.114;2024-01-15T10:11:12;99627.09;;;5.96;100.00
63190;BME280;49286;44.460;26.114;2024-01-15T10:13:39;99554.84;;;5.68;100.00
63190;BME280;49286;44.460;26.114;2024-01-15T10:16:04;99616.00;;;6.41;100.00
63190;BME280;49286;44.460;26.114;2024-01-15T10:18:30;99523.78;;;5.95;96.07
63190;BME280;49286;44.460;26.114;2024-01-15T10:20:56;99604.78;;;6.56;95.99
63190;BME280;49286;44.460;26.114;2024-01-15T10:23:23;99615.19;;;6.58;98.94
63190;BME280;49286;44.460;26.114;2024-01-15T10:25:49;99511.59;;;5.86;93.51
63190;BME280;49286;44.460;26.114;2024-01-15T10:28:14;99571.66;;;6.21;95.64
63190;BME280;49286;44.460;26.114;2024-01-15T10:30:40;99521.19;;;5.95;96.21
63190;BME280;49286;44.460;26.114;2024-01-15T10:33:05;99613.44;;;6.47;97.29
63190;BME280;49286;44.460;26.114;2024-01-15T10:35:34;99595.97;;;6.25;94.88
63190;BME280;49286;44.460;26.114;2024-01-15T10:38:01;99583.81;;;6.27;92.94
63190;BME280;49286;44.460;26.114;2024-01-15T10:40:27;99570.78;;;6.19;93.27
63190;BME280;49286;44.460;26.114;2024-01-15T10:42:53;99557.84;;;6.50;93.13
63190;BME280;49286;44.460;26.114;2024-01-15T10:45:18;99568.31;;;6.76;92.09
63190;BME280;49286;44.460;26.114;2024-01-15T10:47:44;99541.44;;;6.95;86.17
63190;BME280;49286;44.460;26.114;2024-01-15T10:50:10;99583.16;;;7.29;83.44
63190;BME280;49286;44.460;26.114;2024-01-15T10:52:40;99499.69;;;7.02;82.29
63190;BME280;49286;44.460;26.114;2024-01-15T10:55:09;99571.00;;;7.37;81.34
63190;BME280;49286;44.460;26.114;2024-01-15T10:57:36;99568.31;;;7.60;81.07
63190;BME280;49286;44.460;26.114;2024-01-15T11:00:03;99491.81;;;7.38;79.41
63190;BME280;49286;44.460;26.114;2024-01-15T11:02:35;99470.06;;;7.32;78.64
63190;BME280;49286;44.460;26.114;2024-01-15T11:05:01;99558.72;;;7.76;78.72
63190;BME280;49286;44.460;26.114;2024-01-15T11:07:26;99487.50;;;7.33;79.66
63190;BME280;49286;44.460;26.114;2024-01-15T11:09:52;99513.53;;;7.51;81.48
63190;BME280;49286;44.460;26.114;2024-01-15T11:12:18;99529.19;;;7.59;78.99
63190;BME280;49286;44.460;26.114;2024-01-15T11:14:48;99519.59;;;7.53;80.12
63190;BME280;49286;44.460;26.114;2024-01-15T11:17:16;99505.72;;;7.40;83.20
63190;BME280;49286;44.460;26.114;2024-01-15T11:22:56;99445.69;;;7.39;85.26
63190;BME280;49286;44.460;26.114;2024-01-15T11:25:15;99429.22;;;7.22;81.98
63190;BME280;49286;44.460;26.114;2024-01-15T11:27:47;99544.81;;;7.82;82.69
63190;BME280;49286;44.460;26.114;2024-01-15T11:30:13;99470.03;;;7.56;85.26
63190;BME280;49286;44.460;26.114;2024-01-15T11:32:40;99515.19;;;7.89;85.37
63190;BME280;49286;44.460;26.114;2024-01-15T11:35:09;99437.09;;;6.95;84.48
63190;BME280;49286;44.460;26.114;2024-01-15T11:43:02;99503.03;;;7.65;85.13
63190;BME280;49286;44.460;26.114;2024-01-15T11:45:29;99479.47;;;7.83;85.95
63190;BME280;49286;44.460;26.114;2024-01-15T11:48:15;99508.28;;;7.56;87.46
63190;BME280;49286;44.460;26.114;2024-01-15T11:50:49;99421.44;;;7.12;89.04
63190;BME280;49286;44.460;26.114;2024-01-15T11:55:57;99400.53;;;7.15;90.63
63190;BME280;49286;44.460;26.114;2024-01-15T11:58:23;99408.34;;;7.20;88.80
63190;BME280;49286;44.460;26.114;2024-01-15T12:00:51;99486.50;;;7.75;92.17
63190;BME280;49286;44.460;26.114;2024-01-15T12:03:20;99481.28;;;7.71;88.22
63190;BME280;49286;44.460;26.114;2024-01-15T12:05:45;99416.19;;;7.22;89.80
63190;BME280;49286;44.460;26.114;2024-01-15T12:08:11;99462.22;;;7.52;90.59
63190;BME280;49286;44.460;26.114;2024-01-15T12:10:41;99402.31;;;6.95;93.09
63190;BME280;49286;44.460;26.114;2024-01-15T12:13:11;99394.50;;;6.83;92.95
63190;BME280;49286;44.460;26.114;2024-01-15T12:15:38;99439.66;;;7.09;92.63
63190;BME280;49286;44.460;26.114;2024-01-15T12:18:07;99480.53;;;7.33;93.67
63190;BME280;49286;44.460;26.114;2024-01-15T12:20:33;99484.00;;;7.35;95.93
63190;BME280;49286;44.460;26.114;2024-01-15T12:23:01;99385.84;;;6.54;97.34
63190;BME280;49286;44.460;26.114;2024-01-15T12:25:29;99459.66;;;7.13;98.29
63190;BME280;49286;44.460;26.114;2024-01-15T12:27:55;99408.41;;;6.92;99.49
63190;BME280;49286;44.460;26.114;2024-01-15T12:30:21;99421.47;;;6.95;98.81
63190;BME280;49286;44.460;26.114;2024-01-15T12:32:47;99433.53;;;7.26;100.00
63190;BME280;49286;44.460;26.114;2024-01-15T12:35:13;99374.50;;;7.00;99.10
63190;BME280;49286;44.460;26.114;2024-01-15T12:37:40;99428.34;;;7.27;99.78
63190;BME280;49286;44.460;26.114;2024-01-15T12:40:07;99351.06;;;6.85;100.00
63190;BME280;49286;44.460;26.114;2024-01-15T12:42:33;99419.66;;;7.21;100.00
63190;BME280;49286;44.460;26.114;2024-01-15T12:45:00;99428.34;;;7.24;100.00
63190;BME280;49286;44.460;26.114;2024-01-15T12:47:26;99418.78;;;7.25;100.00
63190;BME280;49286;44.460;26.114;2024-01-15T12:49:52;99388.38;;;7.02;100.00
63190;BME280;49286;44.460;26.114;2024-01-15T12:52:20;99401.44;;;7.10;100.00